createdAt,value
2019-03-21T00:01:41.514Z,12.60
2019-03-21T00:04:16.716Z,13.63
2019-03-21T00:06:51.285Z,14.27
2019-03-21T00:09:25.284Z,13.23
2019-03-21T00:12:04.094Z,13.20
2019-03-21T00:15:15.391Z,13.30
2019-03-21T00:18:06.424Z,12.77
2019-03-21T00:20:40.630Z,16.20
2019-03-21T00:23:15.311Z,14.20
2019-03-21T00:25:49.330Z,14.20
2019-03-21T00:28:23.861Z,13.07
2019-03-21T00:30:58.929Z,13.80
2019-03-21T00:33:33.420Z,11.57
2019-03-21T00:36:07.901Z,12.70
2019-03-21T00:38:42.158Z,13.23
2019-03-21T00:41:17.801Z,12.77
2019-03-21T00:43:54.389Z,12.87
2019-03-21T00:46:28.803Z,13.63
2019-03-21T00:49:03.206Z,17.53
2019-03-21T00:51:37.659Z,17.37
2019-03-21T00:54:11.987Z,15.67
2019-03-21T00:56:46.157Z,18.40
2019-03-21T00:59:23.749Z,17.93
2019-03-21T01:01:59.681Z,16.93
2019-03-21T01:04:35.858Z,18.93
2019-03-21T01:07:10.760Z,19.37
2019-03-21T01:09:44.890Z,18.97
2019-03-21T01:12:20.549Z,18.10
2019-03-21T01:14:54.920Z,18.40
2019-03-21T01:17:29.585Z,17.00
2019-03-21T01:20:03.968Z,17.33
2019-03-21T01:22:38.370Z,16.80
2019-03-21T01:25:18.449Z,16.17
2019-03-21T01:27:52.967Z,16.73
2019-03-21T01:30:27.295Z,16.13
2019-03-21T01:33:01.382Z,15.53
2019-03-21T01:35:35.923Z,16.33
2019-03-21T01:38:10.145Z,17.97
2019-03-21T01:40:46.194Z,17.27
2019-03-21T01:43:20.579Z,17.57
2019-03-21T01:45:55.294Z,17.83
2019-03-21T01:48:29.274Z,16.00
2019-03-21T01:51:03.741Z,20.00
2019-03-21T01:53:37.755Z,17.23
2019-03-21T01:56:13.212Z,18.77
2019-03-21T01:58:48.159Z,17.47
2019-03-21T02:01:38.114Z,17.43
2019-03-21T02:04:12.158Z,17.80
2019-03-21T02:06:47.751Z,18.60
2019-03-21T02:09:22.010Z,17.57
2019-03-21T02:11:56.632Z,17.03
2019-03-21T02:14:32.257Z,17.17
2019-03-21T02:17:06.432Z,17.23
2019-03-21T02:19:41.029Z,16.50
2019-03-21T02:22:15.271Z,17.10
2019-03-21T02:24:49.792Z,17.53
2019-03-21T02:27:23.786Z,17.67
2019-03-21T02:29:58.404Z,17.57
2019-03-21T02:32:32.870Z,17.13
2019-03-21T02:35:07.258Z,18.17
2019-03-21T02:37:41.983Z,18.50
2019-03-21T02:40:18.317Z,16.90
2019-03-21T02:42:53.001Z,17.30
2019-03-21T02:45:27.193Z,18.53
2019-03-21T02:48:01.618Z,17.93
2019-03-21T02:50:37.399Z,16.77
2019-03-21T02:53:12.313Z,19.07
2019-03-21T02:55:46.538Z,17.57
2019-03-21T02:58:21.354Z,17.77
2019-03-21T03:00:57.625Z,20.97
2019-03-21T03:03:31.801Z,17.37
2019-03-21T03:06:06.205Z,17.53
2019-03-21T03:08:40.975Z,16.73
2019-03-21T03:11:15.264Z,16.13
2019-03-21T03:13:51.710Z,18.13
2019-03-21T03:16:26.804Z,17.50
2019-03-21T03:19:00.996Z,16.90
2019-03-21T03:21:36.325Z,16.43
2019-03-21T03:24:10.965Z,17.17
2019-03-21T03:26:45.491Z,16.57
2019-03-21T03:29:20.108Z,16.97
2019-03-21T03:31:54.677Z,16.87
2019-03-21T03:34:29.013Z,16.90
2019-03-21T03:37:03.242Z,16.17
2019-03-21T03:39:37.924Z,16.27
2019-03-21T03:42:14.674Z,15.67
2019-03-21T03:44:49.127Z,18.07
2019-03-21T03:47:24.103Z,16.30
2019-03-21T03:49:58.907Z,16.23
2019-03-21T03:52:33.240Z,16.07
2019-03-21T03:55:07.864Z,15.27
2019-03-21T03:57:42.033Z,16.10
2019-03-21T04:00:18.428Z,15.63
2019-03-21T04:02:53.488Z,15.27
2019-03-21T04:05:28.108Z,15.30
2019-03-21T04:08:02.147Z,15.57
2019-03-21T04:10:38.781Z,19.40
2019-03-21T04:13:12.804Z,19.87
2019-03-21T04:15:53.278Z,17.17
2019-03-21T04:18:24.244Z,17.20
2019-03-21T04:20:58.917Z,17.53
2019-03-21T04:23:33.431Z,17.70
2019-03-21T04:26:16.574Z,16.93
2019-03-21T04:28:50.901Z,16.97
2019-03-21T04:31:25.726Z,14.83
2019-03-21T04:34:02.043Z,15.60
2019-03-21T04:36:36.521Z,15.23
2019-03-21T04:39:13.315Z,13.63
2019-03-21T04:41:47.694Z,17.33
2019-03-21T04:44:24.057Z,16.57
2019-03-21T04:46:58.413Z,16.60
2019-03-21T04:49:32.795Z,14.70
2019-03-21T04:52:07.421Z,14.87
2019-03-21T04:54:41.553Z,13.27
2019-03-21T04:57:16.106Z,13.40
2019-03-21T04:59:50.150Z,14.83
2019-03-21T05:02:24.968Z,14.20
2019-03-21T05:04:59.306Z,14.93
2019-03-21T05:07:33.781Z,15.07
2019-03-21T05:10:08.795Z,14.10
2019-03-21T05:12:43.563Z,15.03
2019-03-21T05:15:20.402Z,13.93
2019-03-21T05:17:55.719Z,15.13
2019-03-21T05:20:33.703Z,15.93
2019-03-21T05:23:08.159Z,13.93
2019-03-21T05:25:42.703Z,18.80
2019-03-21T05:28:17.019Z,21.77
2019-03-21T05:30:57.561Z,21.23
2019-03-21T05:33:32.265Z,18.63
2019-03-21T05:36:06.754Z,19.10
2019-03-21T05:38:41.160Z,16.33
2019-03-21T05:41:15.497Z,17.53
2019-03-21T05:43:53.912Z,17.33
2019-03-21T05:46:28.017Z,16.50
2019-03-21T05:49:03.375Z,17.80
2019-03-21T05:51:39.760Z,17.00
2019-03-21T05:54:14.873Z,14.63
2019-03-21T05:56:49.276Z,19.33
2019-03-21T05:59:23.885Z,20.73
2019-03-21T06:01:57.899Z,16.40
2019-03-21T06:04:32.415Z,20.33
2019-03-21T06:07:26.597Z,20.67
2019-03-21T06:10:06.911Z,17.13
2019-03-21T06:12:49.872Z,17.17
2019-03-21T06:15:27.520Z,22.73
2019-03-21T06:18:25.926Z,24.17
2019-03-21T06:21:23.854Z,18.90
2019-03-21T06:24:13.413Z,19.17
2019-03-21T06:27:01.765Z,15.80
2019-03-21T06:29:36.074Z,19.47
2019-03-21T06:32:13.037Z,16.83
2019-03-21T06:34:47.919Z,18.10
2019-03-21T06:37:25.145Z,19.27
2019-03-21T06:40:01.009Z,18.77
2019-03-21T06:42:35.838Z,17.30
2019-03-21T06:45:10.240Z,19.10
2019-03-21T06:47:45.666Z,15.90
2019-03-21T06:50:20.219Z,13.30
2019-03-21T06:52:55.199Z,13.80
2019-03-21T06:55:32.496Z,13.87
2019-03-21T06:58:08.589Z,14.37
2019-03-21T07:00:43.958Z,14.40
2019-03-21T07:03:18.924Z,10.63
2019-03-21T07:05:53.367Z,15.47
2019-03-21T07:08:28.048Z,10.33
2019-03-21T07:11:03.509Z,13.33
2019-03-21T07:13:38.214Z,16.83
2019-03-21T07:16:14.196Z,12.53
2019-03-21T07:18:50.494Z,13.27
2019-03-21T07:21:26.287Z,10.07
2019-03-21T07:24:00.819Z,10.57
2019-03-21T07:26:37.042Z,11.97
2019-03-21T07:29:14.899Z,9.20
2019-03-21T07:31:49.230Z,9.50
2019-03-21T07:34:24.816Z,10.70
2019-03-21T07:37:00.239Z,9.37
2019-03-21T07:39:37.703Z,9.03
2019-03-21T07:42:13.686Z,10.37
2019-03-21T07:44:50.678Z,9.03
2019-03-21T07:47:24.695Z,9.03
2019-03-21T07:50:00.362Z,9.33
2019-03-21T07:52:35.712Z,7.97
2019-03-21T07:55:11.995Z,7.93
2019-03-21T07:57:51.328Z,10.83
2019-03-21T08:00:27.615Z,8.57
2019-03-21T08:03:02.070Z,11.90
2019-03-21T08:05:40.562Z,7.80
2019-03-21T08:08:14.327Z,8.17
2019-03-21T08:10:51.515Z,8.03
2019-03-21T08:13:26.703Z,8.57
2019-03-21T08:16:02.311Z,10.23
2019-03-21T08:18:37.663Z,7.80
2019-03-21T08:21:14.169Z,8.57
2019-03-21T08:23:49.251Z,8.37
2019-03-21T08:26:28.368Z,8.03
2019-03-21T08:29:03.225Z,9.10
2019-03-21T08:31:38.852Z,8.40
2019-03-21T08:34:15.400Z,7.70
2019-03-21T08:36:51.132Z,8.60
2019-03-21T08:39:27.186Z,9.90
2019-03-21T08:42:02.843Z,8.13
2019-03-21T08:44:37.952Z,7.50
2019-03-21T08:47:13.262Z,7.73
2019-03-21T08:49:48.892Z,7.90
2019-03-21T08:52:24.941Z,7.60
2019-03-21T08:55:02.715Z,7.77
2019-03-21T08:57:38.768Z,8.40
2019-03-21T09:00:15.652Z,7.30
2019-03-21T09:02:52.757Z,8.60
2019-03-21T09:05:33.094Z,8.70
2019-03-21T09:08:12.828Z,9.40
2019-03-21T09:10:51.339Z,7.23
2019-03-21T09:13:26.828Z,7.10
2019-03-21T09:16:03.416Z,7.53
2019-03-21T09:18:39.144Z,10.17
2019-03-21T09:21:19.778Z,10.80
2019-03-21T09:24:02.057Z,8.13
2019-03-21T09:26:51.008Z,12.30
2019-03-21T09:29:27.813Z,10.93
2019-03-21T09:32:07.466Z,10.07
2019-03-21T09:34:42.300Z,9.60
2019-03-21T09:37:17.578Z,9.10
2019-03-21T09:39:53.991Z,10.30
2019-03-21T09:42:35.227Z,7.70
2019-03-21T09:45:11.900Z,8.40
2019-03-21T09:47:50.906Z,8.23
2019-03-21T09:50:31.720Z,12.17
2019-03-21T09:53:10.516Z,9.00
2019-03-21T09:55:53.762Z,8.87
2019-03-21T09:58:29.134Z,9.80
2019-03-21T10:01:05.048Z,8.90
2019-03-21T10:03:42.460Z,9.53
2019-03-21T10:06:21.579Z,8.17
2019-03-21T10:09:02.283Z,9.07
2019-03-21T10:11:40.781Z,8.80
2019-03-21T10:14:21.430Z,8.10
2019-03-21T10:16:57.221Z,8.37
2019-03-21T10:19:32.226Z,7.60
2019-03-21T10:22:10.314Z,8.13
2019-03-21T10:24:56.654Z,8.53
2019-03-21T10:27:35.883Z,7.60
2019-03-21T10:30:22.419Z,8.60
2019-03-21T10:32:59.440Z,8.37
2019-03-21T10:35:35.137Z,10.27
2019-03-21T10:38:16.631Z,7.60
2019-03-21T10:40:54.435Z,11.07
2019-03-21T10:43:31.629Z,9.20
2019-03-21T10:46:08.188Z,8.80
2019-03-21T10:48:44.183Z,8.73
2019-03-21T10:51:19.282Z,8.07
2019-03-21T10:53:56.078Z,7.57
2019-03-21T10:56:37.681Z,8.17
2019-03-21T10:59:13.506Z,6.90
2019-03-21T11:01:49.558Z,7.93
2019-03-21T11:04:26.782Z,6.97
2019-03-21T11:07:03.196Z,7.43
2019-03-21T11:09:42.823Z,10.10
2019-03-21T11:12:22.661Z,8.97
2019-03-21T11:15:24.106Z,10.33
2019-03-21T11:18:06.986Z,7.33
2019-03-21T11:20:45.251Z,8.13
2019-03-21T11:23:23.497Z,7.13
2019-03-21T11:26:01.208Z,7.47
2019-03-21T11:28:38.368Z,9.83
2019-03-21T11:31:17.156Z,7.53
2019-03-21T11:33:54.553Z,7.53
2019-03-21T11:36:38.184Z,8.13
2019-03-21T11:39:11.725Z,7.77
2019-03-21T11:41:49.164Z,6.87
2019-03-21T11:44:43.328Z,7.13
2019-03-21T11:47:22.328Z,8.67
2019-03-21T11:49:59.670Z,8.57
2019-03-21T11:52:35.595Z,8.63
2019-03-21T11:55:43.390Z,8.27
2019-03-21T11:58:19.954Z,8.27
2019-03-21T12:00:56.036Z,9.10
2019-03-21T12:03:40.875Z,8.60
2019-03-21T12:06:15.724Z,8.57
2019-03-21T12:08:52.825Z,7.47
2019-03-21T12:11:28.189Z,6.33
2019-03-21T12:14:06.079Z,6.77
2019-03-21T12:16:42.033Z,8.03
2019-03-21T12:19:18.550Z,8.47
2019-03-21T12:21:55.138Z,8.47
2019-03-21T12:24:30.559Z,8.17
2019-03-21T12:27:09.521Z,8.40
2019-03-21T12:29:45.884Z,8.97
2019-03-21T12:32:20.718Z,7.47
2019-03-21T12:34:56.475Z,7.90
2019-03-21T12:37:32.566Z,10.53
2019-03-21T12:40:11.734Z,7.47
2019-03-21T12:42:48.608Z,8.73
2019-03-21T12:45:24.420Z,8.10
2019-03-21T12:48:00.144Z,9.57
2019-03-21T12:50:35.331Z,8.40
2019-03-21T12:53:13.725Z,6.60
2019-03-21T12:56:05.700Z,8.37
2019-03-21T12:58:40.654Z,9.00
2019-03-21T13:01:17.945Z,8.75
2019-03-21T13:03:53.707Z,8.90
2019-03-21T13:06:30.843Z,7.60
2019-03-21T13:09:12.037Z,7.97
2019-03-21T13:11:47.125Z,7.03
2019-03-21T13:14:24.136Z,7.67
2019-03-21T13:16:59.872Z,8.20
2019-03-21T13:19:34.529Z,8.90
2019-03-21T13:22:12.381Z,8.00
2019-03-21T13:24:48.156Z,8.47
2019-03-21T13:27:24.182Z,6.93
2019-03-21T13:30:03.486Z,8.90
2019-03-21T13:32:39.556Z,8.83
2019-03-21T13:35:31.517Z,10.37
2019-03-21T13:37:58.008Z,8.40
2019-03-21T13:40:34.226Z,7.83
2019-03-21T13:43:11.300Z,8.10
2019-03-21T13:45:46.158Z,8.20
2019-03-21T13:48:23.651Z,11.40
2019-03-21T13:50:57.646Z,9.83
2019-03-21T13:53:33.454Z,9.40
2019-03-21T13:56:10.362Z,10.97
2019-03-21T13:58:46.717Z,8.67
2019-03-21T14:01:24.098Z,8.17
2019-03-21T14:04:01.909Z,9.00
2019-03-21T14:06:37.436Z,10.43
2019-03-21T14:09:15.295Z,9.87
2019-03-21T14:11:50.305Z,9.50
2019-03-21T14:14:26.108Z,9.90
2019-03-21T14:17:21.570Z,10.77
2019-03-21T14:19:49.623Z,12.20
2019-03-21T14:22:24.731Z,11.37
2019-03-21T14:25:04.523Z,12.00
2019-03-21T14:27:40.068Z,10.77
2019-03-21T14:30:16.744Z,11.73
2019-03-21T14:32:51.911Z,11.63
2019-03-21T14:35:28.524Z,12.00
2019-03-21T14:38:03.061Z,10.83
2019-03-21T14:40:42.366Z,8.30
2019-03-21T14:43:16.860Z,9.13
2019-03-21T14:45:53.604Z,9.10
2019-03-21T14:48:28.444Z,8.83
2019-03-21T14:51:04.168Z,9.10
2019-03-21T14:53:41.173Z,11.50
2019-03-21T14:56:16.076Z,10.63
2019-03-21T14:58:50.497Z,10.00
2019-03-21T15:01:26.100Z,10.57
2019-03-21T15:04:01.295Z,8.43
2019-03-21T15:06:36.414Z,10.17
2019-03-21T15:09:10.357Z,10.50
2019-03-21T15:11:45.887Z,10.13
2019-03-21T15:14:23.505Z,12.10
2019-03-21T15:16:58.565Z,11.27
2019-03-21T15:19:33.687Z,12.10
2019-03-21T15:22:09.126Z,17.33
2019-03-21T15:24:44.442Z,15.97
2019-03-21T15:27:20.118Z,14.23
2019-03-21T15:29:55.879Z,16.03
2019-03-21T15:32:32.719Z,14.07
2019-03-21T15:35:09.456Z,14.27
2019-03-21T15:37:46.640Z,14.07
2019-03-21T15:40:21.320Z,16.87
2019-03-21T15:42:57.414Z,20.70
2019-03-21T15:45:31.780Z,21.40
2019-03-21T15:48:08.818Z,24.57
2019-03-21T15:50:43.488Z,26.63
2019-03-21T15:53:18.726Z,27.13
2019-03-21T15:55:55.393Z,24.80
2019-03-21T15:58:31.224Z,27.20
2019-03-21T16:01:07.711Z,29.63
2019-03-21T16:03:42.210Z,29.63
2019-03-21T16:06:29.397Z,31.43
2019-03-21T16:09:04.844Z,31.83
2019-03-21T16:11:40.008Z,35.03
2019-03-21T16:14:17.248Z,28.47
2019-03-21T16:16:52.038Z,23.37
2019-03-21T16:19:26.708Z,24.67
2019-03-21T16:22:05.109Z,23.83
2019-03-21T16:24:40.653Z,22.37
2019-03-21T16:27:22.959Z,19.57
2019-03-21T16:30:00.038Z,18.00
2019-03-21T16:32:35.723Z,19.53
2019-03-21T16:35:12.016Z,18.87
2019-03-21T16:37:45.483Z,18.47
2019-03-21T16:40:19.923Z,16.77
2019-03-21T16:42:54.104Z,21.77
2019-03-21T16:45:30.334Z,17.37
2019-03-21T16:48:10.276Z,16.87
2019-03-21T16:50:45.430Z,17.47
2019-03-21T16:53:20.117Z,21.83
2019-03-21T16:55:57.353Z,17.20
2019-03-21T16:58:32.046Z,13.40
2019-03-21T17:01:07.059Z,15.10
2019-03-21T17:03:42.633Z,16.00
2019-03-21T17:06:20.548Z,17.63
2019-03-21T17:08:54.455Z,16.40
2019-03-21T17:11:29.010Z,16.00
2019-03-21T17:14:05.026Z,14.47
2019-03-21T17:16:40.534Z,17.10
2019-03-21T17:19:16.587Z,13.70
2019-03-21T17:21:52.169Z,15.03
2019-03-21T17:24:29.583Z,13.53
2019-03-21T17:27:03.328Z,13.30
2019-03-21T17:29:37.192Z,13.17
2019-03-21T17:32:13.412Z,12.90
2019-03-21T17:34:50.434Z,12.07
2019-03-21T17:37:24.985Z,12.37
2019-03-21T17:40:00.409Z,12.37
2019-03-21T17:42:36.710Z,15.07
2019-03-21T17:45:13.001Z,13.40
2019-03-21T17:47:48.789Z,18.93
2019-03-21T17:50:24.769Z,14.63
2019-03-21T17:52:59.872Z,14.00
2019-03-21T17:55:34.289Z,14.10
2019-03-21T17:58:10.603Z,12.80
2019-03-21T18:00:46.399Z,16.30
2019-03-21T18:03:21.227Z,14.30
2019-03-21T18:05:55.616Z,16.10
2019-03-21T18:08:32.651Z,13.50
2019-03-21T18:11:06.974Z,13.40
2019-03-21T18:13:48.138Z,13.63
2019-03-21T18:16:24.148Z,15.63
2019-03-21T18:19:01.986Z,13.33
2019-03-21T18:21:37.558Z,15.90
2019-03-21T18:24:11.100Z,13.80
2019-03-21T18:26:46.040Z,13.53
2019-03-21T18:29:21.306Z,13.93
2019-03-21T18:31:56.564Z,13.93
2019-03-21T18:34:32.126Z,16.00
2019-03-21T18:37:07.638Z,14.60
2019-03-21T18:39:43.233Z,14.40
2019-03-21T18:42:19.537Z,21.47
2019-03-21T18:44:55.741Z,14.83
2019-03-21T18:47:33.299Z,20.80
2019-03-21T18:50:09.596Z,15.67
2019-03-21T18:52:44.256Z,18.20
2019-03-21T18:55:19.100Z,19.53
2019-03-21T18:57:53.442Z,14.63
2019-03-21T19:00:31.958Z,14.33
2019-03-21T19:03:09.284Z,13.03
2019-03-21T19:05:46.255Z,14.80
2019-03-21T19:08:25.784Z,14.47
2019-03-21T19:11:01.896Z,12.50
2019-03-21T19:13:36.224Z,13.23
2019-03-21T19:16:13.970Z,14.17
2019-03-21T19:18:48.877Z,14.90
2019-03-21T19:21:24.340Z,12.50
2019-03-21T19:23:58.328Z,12.80
2019-03-21T19:26:33.207Z,12.60
2019-03-21T19:29:07.558Z,12.37
2019-03-21T19:31:41.719Z,12.47
2019-03-21T19:34:17.936Z,13.90
2019-03-21T19:36:53.816Z,15.07
2019-03-21T19:39:28.342Z,10.93
2019-03-21T19:42:05.708Z,10.97
2019-03-21T19:44:41.580Z,13.23
2019-03-21T19:47:24.238Z,12.80
2019-03-21T19:49:53.279Z,13.37
2019-03-21T19:52:28.529Z,14.73
2019-03-21T19:55:05.923Z,13.63
2019-03-21T19:57:41.382Z,11.57
2019-03-21T20:00:18.324Z,12.63
2019-03-21T20:03:00.650Z,13.73
2019-03-21T20:05:36.438Z,16.20
2019-03-21T20:08:11.060Z,13.90
2019-03-21T20:10:45.624Z,13.83
2019-03-21T20:13:21.380Z,15.50
2019-03-21T20:15:55.682Z,12.00
2019-03-21T20:18:30.937Z,13.27
2019-03-21T20:21:05.529Z,12.30
2019-03-21T20:23:41.326Z,11.70
2019-03-21T20:26:15.743Z,12.57
2019-03-21T20:28:51.318Z,13.00
2019-03-21T20:31:27.694Z,15.20
2019-03-21T20:34:03.481Z,12.97
2019-03-21T20:36:45.354Z,14.03
2019-03-21T20:39:21.415Z,20.43
2019-03-21T20:41:55.614Z,12.30
2019-03-21T20:44:30.171Z,14.90
2019-03-21T20:47:05.906Z,13.67
2019-03-21T20:49:43.396Z,15.67
2019-03-21T20:52:17.963Z,17.20
2019-03-21T20:54:54.899Z,16.47
2019-03-21T20:57:30.984Z,15.93
2019-03-21T21:00:06.743Z,14.57
2019-03-21T21:02:42.899Z,13.07
2019-03-21T21:05:17.548Z,14.07
2019-03-21T21:07:51.813Z,14.80
2019-03-21T21:10:26.795Z,15.83
2019-03-21T21:13:01.128Z,15.37
2019-03-21T21:15:36.386Z,13.73
2019-03-21T21:18:11.015Z,12.97
2019-03-21T21:20:50.138Z,12.33
2019-03-21T21:23:27.038Z,15.90
2019-03-21T21:26:05.674Z,16.07
2019-03-21T21:28:55.011Z,14.60
2019-03-21T21:31:29.977Z,15.80
2019-03-21T21:34:06.317Z,14.83
2019-03-21T21:36:41.030Z,14.10
2019-03-21T21:39:15.285Z,14.10
2019-03-21T21:41:50.754Z,14.47
2019-03-21T21:44:25.527Z,18.93
2019-03-21T21:47:01.051Z,17.93
2019-03-21T21:49:35.636Z,15.03
2019-03-21T21:52:10.486Z,14.63
2019-03-21T21:54:49.148Z,14.83
2019-03-21T21:57:24.610Z,14.20
2019-03-21T21:59:58.926Z,13.97
2019-03-21T22:02:33.317Z,15.80
2019-03-21T22:05:08.694Z,17.03
2019-03-21T22:07:42.951Z,15.00
2019-03-21T22:10:17.693Z,12.27
2019-03-21T22:12:52.548Z,12.10
2019-03-21T22:15:27.670Z,21.10
2019-03-21T22:18:03.557Z,18.57
2019-03-21T22:20:38.245Z,16.00
2019-03-21T22:23:13.396Z,16.77
2019-03-21T22:25:49.393Z,15.37
2019-03-21T22:28:24.242Z,14.87
2019-03-21T22:30:59.127Z,10.00
2019-03-21T22:33:34.386Z,14.20
2019-03-21T22:36:08.446Z,14.47
2019-03-21T22:38:43.464Z,14.47
2019-03-21T22:41:27.174Z,15.60
2019-03-21T22:44:02.855Z,10.87
2019-03-21T22:46:37.837Z,12.80
2019-03-21T22:49:13.305Z,11.47
2019-03-21T22:51:47.681Z,12.53
2019-03-21T22:54:22.778Z,11.83
2019-03-21T22:56:58.150Z,12.83
2019-03-21T22:59:32.818Z,12.27
2019-03-21T23:02:07.002Z,11.90
2019-03-21T23:04:41.888Z,13.83
2019-03-21T23:07:16.420Z,11.80
2019-03-21T23:09:51.024Z,12.47
2019-03-21T23:12:25.714Z,11.00
2019-03-21T23:15:00.343Z,13.20
2019-03-21T23:17:34.930Z,12.37
2019-03-21T23:20:10.267Z,13.97
2019-03-21T23:22:45.921Z,13.40
2019-03-21T23:25:20.324Z,13.57
2019-03-21T23:27:57.560Z,17.70
2019-03-21T23:30:33.525Z,16.70
2019-03-21T23:33:09.118Z,19.70
2019-03-21T23:35:43.833Z,15.03
2019-03-21T23:38:19.024Z,16.90
2019-03-21T23:40:53.558Z,17.27
2019-03-21T23:43:27.911Z,16.13
2019-03-21T23:46:03.173Z,16.17
2019-03-21T23:48:37.184Z,16.47
2019-03-21T23:51:11.850Z,14.47
2019-03-21T23:53:46.512Z,14.63
2019-03-21T23:56:21.070Z,15.40
2019-03-21T23:58:57.504Z,16.63
